Time;durP1;ratioP1;P1;durP2;ratioP2;P2;SDS_P1;SDS_P2;PMS_P1;PMS_P2;Temp;Humidity;BMP_temperature;BMP_pressure;BME280_temperature;BME280_humidity;BME280_pressure;Samples;Min_cycle;Max_cycle;Signal;HPM_P1;HPM_P2
2022/02/26 00:00:32;;;;;;;4.13;3.10;;;3.70;99.90;;;;;;5022927;28;20586;-87
2022/02/26 00:02:58;;;;;;;4.10;2.80;;;3.60;99.90;;;;;;5024081;28;20649;-87
2022/02/26 00:05:24;;;;;;;3.07;2.80;;;3.60;99.90;;;;;;5009456;28;20221;-87
2022/02/26 00:07:49;;;;;;;4.63;3.03;;;3.50;99.90;;;;;;5007009;28;20208;-87
2022/02/26 00:10:15;;;;;;;3.63;2.83;;;3.60;99.90;;;;;;5013736;28;20672;-87
2022/02/26 00:12:41;;;;;;;4.13;3.00;;;3.60;99.90;;;;;;5003300;28;20181;-87
2022/02/26 00:15:07;;;;;;;4.97;3.63;;;3.70;99.90;;;;;;5017414;28;20253;-87
2022/02/26 00:17:34;;;;;;;4.00;3.27;;;3.50;99.90;;;;;;5026542;28;20212;-86
2022/02/26 00:20:00;;;;;;;4.10;3.20;;;3.40;99.90;;;;;;5019802;28;20205;-86
2022/02/26 00:22:26;;;;;;;5.73;3.87;;;3.30;99.90;;;;;;5021103;28;20200;-87
2022/02/26 00:24:51;;;;;;;5.60;3.70;;;3.20;99.90;;;;;;5018310;28;20307;-87
2022/02/26 00:27:17;;;;;;;4.30;3.40;;;3.00;99.90;;;;;;5022220;28;20218;-88
2022/02/26 00:29:43;;;;;;;5.70;3.73;;;2.80;99.90;;;;;;5008351;28;20205;-87
2022/02/26 00:32:09;;;;;;;5.07;3.80;;;2.90;99.90;;;;;;5020751;28;20293;-87
2022/02/26 00:34:34;;;;;;;5.83;3.90;;;3.00;99.90;;;;;;5006614;28;20221;-87
2022/02/26 00:37:00;;;;;;;6.23;3.57;;;3.00;99.90;;;;;;5030183;28;20217;-87
2022/02/26 00:39:26;;;;;;;4.50;3.47;;;3.10;99.90;;;;;;5026353;28;20202;-86
2022/02/26 00:41:52;;;;;;;5.63;3.57;;;3.20;99.90;;;;;;5021503;28;20217;-87
2022/02/26 00:44:18;;;;;;;5.63;4.20;;;3.30;99.90;;;;;;5029278;28;20679;-87
2022/02/26 00:46:46;;;;;;;5.03;3.40;;;3.30;99.90;;;;;;5012712;28;20289;-87
2022/02/26 00:51:59;;;;;;;4.17;3.53;;;3.20;99.90;;;;;;5017417;28;20686;-87
2022/02/26 00:54:25;;;;;;;5.93;4.30;;;3.20;99.90;;;;;;5025606;28;20265;-87
2022/02/26 00:56:51;;;;;;;4.40;4.00;;;3.30;99.90;;;;;;5032372;28;20199;-87
2022/02/26 00:59:17;;;;;;;5.83;3.90;;;3.20;99.90;;;;;;5034139;28;20203;-87
2022/02/26 01:01:43;;;;;;;4.80;3.63;;;3.00;99.90;;;;;;5003969;28;20275;-87
2022/02/26 01:04:08;;;;;;;4.87;4.07;;;2.90;99.90;;;;;;5022027;28;20284;-86
2022/02/26 01:06:35;;;;;;;4.70;4.07;;;3.00;99.90;;;;;;5006908;28;20260;-86
2022/02/26 01:09:02;;;;;;;4.37;3.70;;;3.10;99.90;;;;;;4987735;28;20696;-87
2022/02/26 01:11:28;;;;;;;4.37;3.47;;;3.30;99.90;;;;;;5023752;28;20628;-87
2022/02/26 01:13:53;;;;;;;6.90;3.70;;;3.50;99.90;;;;;;5004643;28;20229;-86
2022/02/26 01:16:19;;;;;;;6.23;4.23;;;3.70;99.90;;;;;;5024350;28;20220;-87
2022/02/26 01:18:45;;;;;;;5.20;4.60;;;3.80;99.90;;;;;;5025772;28;20220;-87
2022/02/26 01:21:11;;;;;;;4.90;4.50;;;3.60;99.90;;;;;;5004825;28;20288;-87
2022/02/26 01:23:37;;;;;;;5.37;3.93;;;3.50;99.90;;;;;;5030060;28;20671;-87
2022/02/26 01:26:03;;;;;;;5.00;4.50;;;3.40;99.90;;;;;;5009908;28;20225;-87
2022/02/26 01:28:29;;;;;;;5.13;4.23;;;3.40;99.90;;;;;;5001780;28;20575;-87
2022/02/26 01:30:54;;;;;;;5.93;4.27;;;3.50;99.90;;;;;;5017432;28;20197;-87
2022/02/26 01:33:20;;;;;;;5.27;4.77;;;3.70;99.90;;;;;;5007331;28;20209;-86
2022/02/26 01:35:46;;;;;;;5.70;4.70;;;3.50;99.90;;;;;;5025786;28;20296;-87
2022/02/26 01:38:11;;;;;;;6.23;4.73;;;3.40;99.90;;;;;;5024291;28;20225;-87
2022/02/26 01:40:37;;;;;;;7.73;4.50;;;3.50;99.90;;;;;;5024960;28;20223;-87
2022/02/26 01:43:03;;;;;;;8.33;4.70;;;3.60;99.90;;;;;;5007807;28;20209;-87
2022/02/26 01:45:29;;;;;;;5.13;4.40;;;3.60;99.90;;;;;;5011204;28;20209;-87
2022/02/26 01:47:55;;;;;;;4.90;4.40;;;3.50;99.90;;;;;;5029207;28;20656;-86
2022/02/26 01:50:21;;;;;;;6.00;4.83;;;3.30;99.90;;;;;;5018002;28;20201;-87
2022/02/26 01:52:47;;;;;;;4.83;4.37;;;3.30;99.90;;;;;;5028265;28;20196;-87
2022/02/26 01:55:14;;;;;;;6.13;4.60;;;3.30;99.90;;;;;;5026789;28;20722;-87
2022/02/26 01:57:40;;;;;;;5.30;4.10;;;3.40;99.90;;;;;;5014401;28;20537;-87
2022/02/26 02:00:08;;;;;;;8.13;4.60;;;3.40;99.90;;;;;;5029225;28;20200;-87
2022/02/26 02:02:34;;;;;;;4.97;4.40;;;3.50;99.90;;;;;;5026879;28;20204;-87
2022/02/26 02:05:01;;;;;;;5.10;4.43;;;3.40;99.90;;;;;;5033879;28;20386;-87
2022/02/26 02:07:27;;;;;;;6.53;4.70;;;3.40;99.90;;;;;;5011133;28;20200;-87
2022/02/26 02:09:53;;;;;;;7.27;4.37;;;3.50;99.90;;;;;;5028214;28;20218;-87
2022/02/26 02:12:18;;;;;;;8.30;5.13;;;3.50;99.90;;;;;;5014986;28;20197;-87
2022/02/26 02:14:45;;;;;;;5.43;4.77;;;3.40;99.90;;;;;;5019728;28;20251;-87
2022/02/26 02:17:11;;;;;;;6.27;4.83;;;3.30;99.90;;;;;;5027412;28;20196;-87
2022/02/26 02:19:36;;;;;;;6.70;4.90;;;3.40;99.90;;;;;;5009206;28;20182;-86
2022/02/26 02:22:06;;;;;;;5.50;5.00;;;3.40;99.90;;;;;;5036780;28;20219;-87
2022/02/26 02:24:33;;;;;;;7.73;5.30;;;3.40;99.90;;;;;;5013782;28;20232;-87
2022/02/26 02:27:02;;;;;;;6.73;4.90;;;3.30;99.90;;;;;;5023274;28;20696;-87
2022/02/26 02:29:28;;;;;;;8.83;5.13;;;3.30;99.90;;;;;;5009343;28;20193;-87
2022/02/26 02:31:54;;;;;;;6.30;5.07;;;3.30;99.90;;;;;;5032261;28;20272;-87
2022/02/26 02:34:20;;;;;;;6.63;5.10;;;3.20;99.90;;;;;;5002721;28;20241;-87
2022/02/26 02:36:47;;;;;;;5.90;5.30;;;3.20;99.90;;;;;;5020995;28;20200;-87
2022/02/26 02:39:14;;;;;;;5.80;5.20;;;3.40;99.90;;;;;;5016763;28;20202;-87
2022/02/26 02:41:40;;;;;;;7.13;4.90;;;3.30;99.90;;;;;;5021880;28;20213;-88
2022/02/26 02:44:06;;;;;;;7.73;5.13;;;3.30;99.90;;;;;;5025239;28;20217;-87
2022/02/26 02:46:32;;;;;;;5.27;4.67;;;3.40;99.90;;;;;;5032594;28;20210;-89
2022/02/26 02:48:58;;;;;;;5.40;4.90;;;3.40;99.90;;;;;;5031631;28;20189;-90
2022/02/26 02:51:24;;;;;;;5.37;4.83;;;3.50;99.90;;;;;;5041345;28;20281;-91
2022/02/26 02:53:50;;;;;;;6.30;4.50;;;3.60;99.90;;;;;;5034853;28;20196;-91
2022/02/26 02:56:15;;;;;;;5.53;4.63;;;3.60;99.90;;;;;;5013343;28;20791;-89
2022/02/26 02:58:41;;;;;;;5.07;4.57;;;3.70;99.90;;;;;;5023900;28;20198;-90
2022/02/26 03:01:07;;;;;;;4.83;3.83;;;3.70;99.90;;;;;;5050684;28;20237;-89
2022/02/26 03:03:32;;;;;;;5.33;4.83;;;3.80;99.90;;;;;;5040539;28;20216;-89
2022/02/26 03:05:58;;;;;;;5.73;5.17;;;3.80;99.90;;;;;;5038300;28;20224;-89
2022/02/26 03:08:24;;;;;;;6.03;5.27;;;3.90;99.90;;;;;;5029093;28;20986;-87
2022/02/26 03:10:55;;;;;;;6.70;4.87;;;3.70;99.90;;;;;;5030483;28;20182;-87
2022/02/26 03:13:22;;;;;;;9.43;5.30;;;3.80;99.90;;;;;;5029033;28;20189;-87
2022/02/26 03:15:52;;;;;;;5.37;4.87;;;3.70;99.90;;;;;;5028865;28;20205;-87
2022/02/26 03:18:19;;;;;;;5.40;4.73;;;3.70;99.90;;;;;;5041597;28;20249;-88
2022/02/26 03:20:45;;;;;;;6.03;4.73;;;3.70;99.90;;;;;;5013913;28;20193;-86
2022/02/26 03:23:12;;;;;;;5.63;5.03;;;3.80;99.90;;;;;;5001967;28;20200;-87
2022/02/26 03:25:39;;;;;;;5.77;5.00;;;3.80;99.90;;;;;;5034451;28;20233;-88
2022/02/26 03:28:05;;;;;;;7.30;5.33;;;3.70;99.90;;;;;;5029582;28;20228;-87
2022/02/26 03:30:32;;;;;;;8.00;5.27;;;3.80;99.90;;;;;;5032672;28;20248;-87
2022/02/26 03:32:57;;;;;;;5.40;4.90;;;3.80;99.90;;;;;;5016735;28;20708;-87
2022/02/26 03:35:24;;;;;;;6.57;5.30;;;3.80;99.90;;;;;;5026087;28;20217;-88
2022/02/26 03:37:50;;;;;;;5.63;5.07;;;3.90;99.90;;;;;;5029854;28;20257;-87
2022/02/26 03:40:16;;;;;;;6.07;5.47;;;4.00;99.90;;;;;;5013621;28;20244;-87
2022/02/26 03:42:42;;;;;;;5.70;5.03;;;3.90;99.90;;;;;;5016479;28;20198;-90
2022/02/26 03:45:10;;;;;;;5.60;5.10;;;3.90;99.90;;;;;;5039482;28;20213;-89
2022/02/26 03:47:36;;;;;;;5.50;4.63;;;3.90;99.90;;;;;;5041666;28;20196;-89
2022/02/26 03:50:04;;;;;;;5.77;5.17;;;3.90;99.90;;;;;;5047490;28;20241;-87
2022/02/26 03:52:30;;;;;;;7.27;5.43;;;3.80;99.90;;;;;;4995249;28;20190;-86
2022/02/26 03:54:57;;;;;;;5.80;5.07;;;3.80;99.70;;;;;;5011789;28;20248;-86
2022/02/26 03:57:23;;;;;;;6.03;5.43;;;3.80;99.70;;;;;;5027246;28;20680;-86
2022/02/26 03:59:48;;;;;;;5.80;4.83;;;3.60;99.50;;;;;;5031803;28;20193;-88
2022/02/26 04:02:15;;;;;;;5.80;5.20;;;3.60;99.90;;;;;;5030729;28;20237;-87
2022/02/26 04:04:40;;;;;;;6.40;5.67;;;3.50;99.90;;;;;;5025673;28;21292;-86
2022/02/26 04:07:06;;;;;;;7.70;6.03;;;3.60;99.90;;;;;;5009112;28;20201;-87
2022/02/26 04:09:33;;;;;;;8.20;6.00;;;3.60;99.90;;;;;;5014082;28;20269;-87
2022/02/26 04:11:59;;;;;;;6.57;5.90;;;3.40;99.90;;;;;;5028387;28;20240;-87
2022/02/26 04:14:25;;;;;;;7.03;6.43;;;3.50;99.90;;;;;;5039497;28;20213;-89
2022/02/26 04:16:51;;;;;;;9.27;7.53;;;3.40;99.90;;;;;;5036254;28;20245;-87
2022/02/26 04:19:17;;;;;;;7.03;6.27;;;3.20;99.90;;;;;;5016731;28;20220;-87
2022/02/26 04:21:43;;;;;;;6.57;5.83;;;3.20;99.90;;;;;;5028147;28;20193;-89
2022/02/26 04:24:09;;;;;;;7.00;6.23;;;3.20;99.90;;;;;;5029174;28;20274;-89
2022/02/26 04:26:35;;;;;;;7.33;6.67;;;3.40;99.90;;;;;;5033686;28;20209;-87
2022/02/26 04:29:01;;;;;;;7.03;6.33;;;3.40;99.90;;;;;;5011035;28;20208;-87
2022/02/26 04:31:27;;;;;;;7.67;6.83;;;3.40;99.90;;;;;;4991623;28;20198;-87
2022/02/26 04:33:53;;;;;;;9.57;7.60;;;3.40;99.90;;;;;;5036481;28;20276;-87
2022/02/26 04:36:19;;;;;;;12.03;9.30;;;3.30;99.90;;;;;;5024717;28;20201;-87
2022/02/26 04:38:45;;;;;;;10.00;8.67;;;3.20;99.90;;;;;;5014869;28;20306;-87
2022/02/26 04:41:11;;;;;;;9.27;8.23;;;3.10;99.90;;;;;;5019984;28;20296;-86
2022/02/26 04:43:38;;;;;;;8.20;7.40;;;3.00;99.90;;;;;;5017108;28;20197;-87
2022/02/26 04:46:04;;;;;;;8.43;7.70;;;3.10;99.90;;;;;;4998334;28;20325;-87
2022/02/26 04:48:30;;;;;;;10.23;9.13;;;3.10;99.90;;;;;;5019220;28;20248;-88
2022/02/26 04:50:56;;;;;;;9.70;8.80;;;3.10;99.90;;;;;;5006246;28;20189;-87
2022/02/26 04:53:22;;;;;;;8.57;7.77;;;3.00;99.90;;;;;;5031081;28;20349;-87
2022/02/26 04:55:50;;;;;;;8.57;7.77;;;3.00;99.90;;;;;;5033922;28;20564;-88
2022/02/26 04:58:16;;;;;;;9.73;8.73;;;3.10;99.90;;;;;;5008834;28;20217;-88
2022/02/26 05:00:42;;;;;;;9.00;8.10;;;3.20;99.90;;;;;;5028194;28;20277;-87
2022/02/26 05:03:07;;;;;;;9.40;8.50;;;3.30;99.90;;;;;;5000569;28;20214;-88
2022/02/26 05:05:33;;;;;;;9.50;8.53;;;3.30;99.90;;;;;;5007922;28;20727;-88
2022/02/26 05:07:59;;;;;;;9.30;8.40;;;3.40;99.90;;;;;;5025110;28;20190;-87
2022/02/26 05:10:25;;;;;;;9.37;8.13;;;3.40;99.90;;;;;;5019104;28;20224;-88
2022/02/26 05:12:51;;;;;;;9.60;8.60;;;3.40;99.90;;;;;;5019060;28;20518;-87
2022/02/26 05:15:17;;;;;;;9.40;8.23;;;3.40;99.90;;;;;;4989972;28;20221;-88
2022/02/26 05:17:42;;;;;;;11.03;8.87;;;3.40;99.90;;;;;;5038051;28;20197;-87
2022/02/26 05:20:10;;;;;;;8.70;7.83;;;3.40;99.90;;;;;;5004411;28;20229;-88
2022/02/26 05:22:36;;;;;;;9.70;8.70;;;3.40;99.90;;;;;;5019368;28;20198;-87
2022/02/26 05:25:07;;;;;;;8.93;8.03;;;3.40;99.90;;;;;;5018862;28;20233;-89
2022/02/26 05:27:33;;;;;;;10.37;8.97;;;3.40;99.50;;;;;;5020148;28;20196;-87
2022/02/26 05:29:59;;;;;;;9.43;8.37;;;3.40;99.40;;;;;;5006036;28;20245;-88
2022/02/26 05:32:25;;;;;;;8.80;8.00;;;3.40;99.50;;;;;;5019438;28;20197;-87
2022/02/26 05:34:51;;;;;;;8.63;7.73;;;3.30;99.40;;;;;;5007840;28;20776;-88
2022/02/26 05:37:18;;;;;;;8.83;7.93;;;3.30;99.00;;;;;;5021833;28;20205;-88
2022/02/26 05:39:44;;;;;;;10.03;9.03;;;3.30;98.70;;;;;;4992053;28;20549;-88
2022/02/26 05:42:10;;;;;;;10.30;8.23;;;3.00;98.40;;;;;;5001648;28;20274;-88
2022/02/26 05:44:35;;;;;;;11.13;8.53;;;3.00;99.90;;;;;;5000989;28;20271;-87
2022/02/26 05:47:01;;;;;;;10.83;8.07;;;3.00;99.90;;;;;;5018263;28;20587;-87
2022/02/26 05:49:27;;;;;;;9.83;8.40;;;3.00;99.30;;;;;;5019092;28;20244;-88
2022/02/26 05:51:53;;;;;;;8.70;7.80;;;3.00;99.30;;;;;;5018733;28;20255;-88
2022/02/26 05:54:19;;;;;;;9.33;8.37;;;3.00;99.40;;;;;;5002836;28;20692;-87
2022/02/26 05:56:44;;;;;;;9.40;8.03;;;2.80;98.80;;;;;;5001770;28;20198;-87
2022/02/26 05:59:10;;;;;;;9.07;8.17;;;2.90;99.70;;;;;;5029787;28;20283;-87
2022/02/26 06:01:36;;;;;;;11.67;8.70;;;3.00;99.70;;;;;;5026398;28;20226;-88
2022/02/26 06:04:01;;;;;;;9.53;8.23;;;3.10;99.60;;;;;;5005223;28;20284;-89
2022/02/26 06:06:28;;;;;;;9.83;8.33;;;3.10;99.00;;;;;;4984973;28;20228;-89
2022/02/26 06:08:53;;;;;;;10.43;8.87;;;3.00;98.80;;;;;;5020036;28;20212;-90
2022/02/26 06:11:22;;;;;;;9.47;8.47;;;2.90;99.10;;;;;;5020134;28;20197;-87
2022/02/26 06:13:47;;;;;;;9.10;8.20;;;3.00;98.40;;;;;;5010226;28;20209;-88
2022/02/26 06:16:14;;;;;;;9.37;8.47;;;2.90;98.60;;;;;;5021553;28;20209;-87
2022/02/26 06:18:40;;;;;;;9.07;8.27;;;3.00;98.70;;;;;;5032720;28;20197;-89
2022/02/26 06:21:06;;;;;;;9.60;8.50;;;2.90;98.20;;;;;;5025027;28;20220;-87
2022/02/26 06:23:32;;;;;;;10.13;9.17;;;2.90;99.40;;;;;;5041451;28;20195;-89
2022/02/26 06:25:57;;;;;;;10.57;9.30;;;3.00;99.90;;;;;;5024658;28;20300;-88
2022/02/26 06:28:23;;;;;;;10.13;9.10;;;3.00;99.90;;;;;;5025921;28;20193;-90
2022/02/26 06:30:49;;;;;;;10.37;9.37;;;3.00;99.90;;;;;;5027731;28;20181;-87
2022/02/26 06:33:15;;;;;;;9.57;8.67;;;2.90;99.20;;;;;;5013968;28;20190;-88
2022/02/26 06:35:43;;;;;;;10.80;9.80;;;2.90;99.90;;;;;;5020088;28;20687;-88
2022/02/26 06:38:10;;;;;;;10.67;9.67;;;3.00;99.90;;;;;;5021362;28;20207;-88
2022/02/26 06:40:36;;;;;;;11.70;10.50;;;3.00;99.90;;;;;;5020343;28;20204;-89
2022/02/26 06:43:02;;;;;;;10.20;9.20;;;2.90;99.00;;;;;;4998186;28;20215;-87
2022/02/26 06:45:28;;;;;;;11.30;10.20;;;2.70;99.40;;;;;;5010821;28;20229;-88
2022/02/26 06:47:53;;;;;;;14.27;10.80;;;2.70;99.90;;;;;;5003247;28;20181;-88
2022/02/26 06:50:19;;;;;;;10.87;9.87;;;2.60;99.90;;;;;;5025895;28;20193;-88
2022/02/26 06:52:45;;;;;;;11.23;10.00;;;2.70;99.90;;;;;;5029975;28;20194;-88
2022/02/26 06:55:11;;;;;;;10.53;9.43;;;2.70;99.80;;;;;;5027690;28;20296;-90
2022/02/26 06:57:37;;;;;;;11.63;10.53;;;2.60;99.20;;;;;;5021920;28;20220;-88
2022/02/26 07:00:05;;;;;;;14.27;10.93;;;2.60;99.90;;;;;;5026131;28;20665;-89
2022/02/26 07:02:32;;;;;;;11.60;10.40;;;2.60;99.90;;;;;;5035173;28;20185;-89
2022/02/26 07:04:57;;;;;;;10.90;9.80;;;2.70;99.90;;;;;;5013978;28;20221;-88
2022/02/26 07:07:23;;;;;;;11.37;10.27;;;2.70;99.90;;;;;;5034762;28;20204;-92
2022/02/26 07:09:49;;;;;;;10.37;9.37;;;2.70;99.90;;;;;;5037329;28;20186;-90
2022/02/26 07:12:16;;;;;;;10.90;9.60;;;2.80;99.90;;;;;;5007232;28;20925;-88
2022/02/26 07:14:42;;;;;;;11.67;10.53;;;2.80;99.90;;;;;;5004157;28;20213;-88
2022/02/26 07:17:08;;;;;;;13.80;11.70;;;2.80;99.90;;;;;;5020515;28;20272;-88
2022/02/26 07:19:34;;;;;;;13.60;11.80;;;2.80;99.90;;;;;;5021017;28;20217;-88
2022/02/26 07:22:00;;;;;;;12.90;11.17;;;2.80;99.90;;;;;;5004452;28;20178;-88
2022/02/26 07:24:26;;;;;;;12.07;10.97;;;2.90;99.90;;;;;;5019885;28;20213;-90
2022/02/26 07:26:53;;;;;;;12.67;11.47;;;2.90;99.90;;;;;;5019774;28;20221;-88
2022/02/26 07:29:18;;;;;;;13.30;12.07;;;2.90;99.80;;;;;;5018034;28;20193;-88
2022/02/26 07:31:44;;;;;;;11.27;10.07;;;2.80;99.90;;;;;;5020771;28;20217;-88
2022/02/26 07:34:10;;;;;;;11.70;10.50;;;2.70;99.90;;;;;;5030245;28;20213;-89
2022/02/26 07:36:36;;;;;;;11.73;10.57;;;2.80;99.90;;;;;;5028169;28;20186;-88
2022/02/26 07:39:04;;;;;;;12.20;10.60;;;2.80;99.90;;;;;;4991222;28;20197;-88
2022/02/26 07:41:29;;;;;;;13.50;12.10;;;2.70;99.90;;;;;;5020120;28;20178;-88
2022/02/26 07:43:55;;;;;;;20.13;18.13;;;2.80;99.90;;;;;;5010849;28;20249;-88
2022/02/26 07:46:21;;;;;;;11.70;10.63;;;2.90;99.90;;;;;;5017763;28;20206;-88
2022/02/26 07:48:47;;;;;;;13.03;11.73;;;2.90;99.90;;;;;;5019023;28;20197;-88
2022/02/26 07:51:13;;;;;;;12.10;10.87;;;2.90;99.90;;;;;;5017258;28;20185;-88
2022/02/26 07:53:39;;;;;;;14.13;12.70;;;2.90;99.90;;;;;;5028152;28;20185;-88
2022/02/26 07:56:05;;;;;;;12.13;10.93;;;2.80;99.90;;;;;;5028995;28;20217;-88
2022/02/26 07:58:30;;;;;;;12.70;10.80;;;2.90;99.90;;;;;;5022428;28;20194;-88
2022/02/26 08:00:56;;;;;;;13.07;11.77;;;3.00;99.90;;;;;;5024284;28;20240;-88
2022/02/26 08:03:22;;;;;;;14.90;13.40;;;3.20;99.90;;;;;;5025468;28;20202;-88
2022/02/26 08:05:48;;;;;;;13.33;11.93;;;3.10;99.90;;;;;;5006786;28;20221;-88
2022/02/26 08:08:14;;;;;;;14.87;13.37;;;3.00;99.90;;;;;;5026422;28;20189;-87
2022/02/26 08:10:39;;;;;;;14.63;13.13;;;3.20;99.90;;;;;;5025596;28;20727;-87
2022/02/26 08:13:05;;;;;;;15.60;13.67;;;3.20;99.90;;;;;;5007201;28;20189;-88
2022/02/26 08:15:31;;;;;;;17.73;15.83;;;3.30;99.90;;;;;;5022714;28;20225;-88
2022/02/26 08:17:57;;;;;;;17.60;15.77;;;3.50;99.90;;;;;;5024977;28;20261;-88
2022/02/26 08:20:24;;;;;;;18.47;16.17;;;3.60;99.90;;;;;;5020211;28;20197;-88
2022/02/26 08:22:51;;;;;;;16.10;14.23;;;3.30;99.90;;;;;;5014770;28;20209;-88
2022/02/26 08:25:17;;;;;;;18.03;15.90;;;3.30;99.90;;;;;;5020712;28;20307;-88
2022/02/26 08:27:43;;;;;;;16.50;14.87;;;3.50;99.90;;;;;;5021785;28;20634;-87
2022/02/26 08:30:12;;;;;;;16.40;14.77;;;3.70;99.90;;;;;;5019733;28;20204;-88
2022/02/26 08:32:38;;;;;;;15.63;14.13;;;3.80;99.90;;;;;;5021142;28;20641;-88
2022/02/26 08:35:05;;;;;;;19.60;17.70;;;3.80;99.90;;;;;;5020349;28;20255;-88
2022/02/26 08:37:30;;;;;;;17.03;15.23;;;3.90;99.90;;;;;;5021185;28;20193;-88
2022/02/26 08:39:56;;;;;;;15.53;12.67;;;3.90;99.90;;;;;;5020850;28;20189;-88
2022/02/26 08:42:22;;;;;;;17.70;14.70;;;4.00;99.90;;;;;;5017620;28;20213;-88
2022/02/26 08:44:49;;;;;;;14.60;13.10;;;4.00;99.90;;;;;;5018277;28;20205;-88
2022/02/26 08:47:14;;;;;;;17.10;15.20;;;4.00;99.90;;;;;;5023629;28;20286;-88
2022/02/26 08:49:40;;;;;;;17.67;15.77;;;3.80;99.90;;;;;;5020977;28;20194;-88
2022/02/26 08:52:07;;;;;;;15.20;13.57;;;3.80;99.90;;;;;;5002206;28;20272;-88
2022/02/26 08:54:33;;;;;;;17.53;14.93;;;3.70;99.90;;;;;;4993374;28;20217;-89
2022/02/26 08:57:01;;;;;;;14.40;12.93;;;3.40;99.90;;;;;;5009306;28;20204;-89
2022/02/26 08:59:27;;;;;;;18.70;13.43;;;3.30;99.90;;;;;;4998032;28;20216;-89
2022/02/26 09:01:53;;;;;;;19.27;14.90;;;3.50;99.90;;;;;;5037432;28;20197;-90
2022/02/26 09:04:18;;;;;;;16.70;14.37;;;3.70;99.90;;;;;;5004662;28;20233;-87
2022/02/26 09:06:44;;;;;;;18.30;15.23;;;3.90;99.90;;;;;;5010310;28;20213;-87
2022/02/26 09:09:10;;;;;;;17.40;13.80;;;3.80;99.90;;;;;;5013695;28;20197;-87
2022/02/26 09:11:41;;;;;;;16.10;13.33;;;3.80;99.90;;;;;;5022062;28;20184;-87
2022/02/26 09:14:07;;;;;;;18.53;14.57;;;3.70;99.90;;;;;;5019974;28;20291;-87
2022/02/26 09:16:33;;;;;;;19.93;10.87;;;3.80;99.90;;;;;;5025068;28;20189;-88
2022/02/26 09:18:59;;;;;;;14.30;10.77;;;3.90;99.90;;;;;;5004844;28;20694;-88
2022/02/26 09:21:25;;;;;;;15.53;12.10;;;4.10;99.90;;;;;;5023058;28;20189;-87
2022/02/26 09:23:50;;;;;;;14.77;9.57;;;4.10;99.90;;;;;;5024563;28;20838;-86
2022/02/26 09:26:16;;;;;;;10.57;8.70;;;4.20;99.90;;;;;;5028952;28;20212;-86
2022/02/26 09:28:42;;;;;;;12.40;8.33;;;4.30;99.80;;;;;;5028452;28;20262;-86
2022/02/26 09:31:10;;;;;;;10.53;9.07;;;4.40;98.80;;;;;;5029437;28;20231;-86
2022/02/26 09:33:36;;;;;;;16.50;9.60;;;4.80;96.20;;;;;;5003342;28;20269;-86
2022/02/26 09:36:04;;;;;;;10.87;9.27;;;4.80;94.60;;;;;;4996688;28;20214;-87
2022/02/26 09:38:30;;;;;;;12.70;9.60;;;5.10;95.50;;;;;;5020683;28;20178;-86
2022/02/26 09:40:58;;;;;;;13.23;9.57;;;5.30;93.90;;;;;;5015425;28;20193;-86
2022/02/26 09:43:24;;;;;;;14.50;9.30;;;5.40;93.50;;;;;;5017236;28;20546;-86
2022/02/26 09:45:51;;;;;;;13.03;8.70;;;5.40;91.70;;;;;;5004140;28;20239;-87
2022/02/26 09:48:18;;;;;;;14.77;9.83;;;5.40;90.50;;;;;;5009334;28;20334;-87
2022/02/26 09:50:44;;;;;;;12.33;8.60;;;5.40;91.90;;;;;;5027700;28;20248;-87
2022/02/26 09:53:10;;;;;;;12.47;8.67;;;5.60;90.30;;;;;;5002617;28;20215;-87
2022/02/26 09:55:37;;;;;;;14.97;10.50;;;5.80;89.50;;;;;;5028871;28;20226;-87
2022/02/26 09:58:03;;;;;;;13.07;9.73;;;5.90;88.10;;;;;;5020922;28;20209;-87
2022/02/26 10:00:29;;;;;;;11.70;8.07;;;5.90;88.30;;;;;;5019460;28;20201;-86
2022/02/26 10:02:55;;;;;;;14.93;7.53;;;6.00;85.50;;;;;;5002161;28;20198;-86
2022/02/26 10:05:21;;;;;;;12.17;8.53;;;6.20;82.60;;;;;;5026102;28;20794;-86
2022/02/26 10:07:49;;;;;;;13.73;7.87;;;6.50;81.30;;;;;;5033941;28;20205;-87
2022/02/26 10:10:20;;;;;;;12.00;7.07;;;6.60;81.80;;;;;;5022622;28;20185;-87
2022/02/26 10:12:54;;;;;;;9.77;6.87;;;6.80;80.50;;;;;;5026035;28;20253;-86
2022/02/26 10:15:27;;;;;;;12.60;6.10;;;7.00;78.80;;;;;;5025345;28;20319;-86
2022/02/26 10:18:05;;;;;;;12.00;7.03;;;7.20;77.60;;;;;;5025065;28;20274;-87
2022/02/26 10:20:32;;;;;;;14.37;6.90;;;7.50;77.00;;;;;;5020982;28;20253;-87
2022/02/26 10:22:59;;;;;;;8.80;5.23;;;7.50;74.80;;;;;;5025616;28;20216;-86
2022/02/26 10:25:28;;;;;;;9.50;4.73;;;7.50;72.90;;;;;;5026585;28;20248;-87
2022/02/26 10:27:56;;;;;;;5.50;4.23;;;7.40;68.30;;;;;;5022256;28;20213;-87
2022/02/26 10:30:29;;;;;;;7.97;4.17;;;7.10;66.80;;;;;;5025399;28;20246;-87
2022/02/26 10:33:04;;;;;;;9.37;5.07;;;7.00;64.40;;;;;;5020833;28;20293;-87
2022/02/26 10:35:45;;;;;;;11.20;5.57;;;7.00;67.20;;;;;;5025065;28;20217;-87
2022/02/26 10:38:20;;;;;;;9.43;5.13;;;7.20;69.10;;;;;;5004406;28;20803;-86
2022/02/26 10:41:06;;;;;;;11.17;4.90;;;7.40;70.30;;;;;;5024790;28;20173;-87
2022/02/26 10:43:43;;;;;;;8.97;4.90;;;7.70;60.00;;;;;;5037263;28;20271;-87
2022/02/26 10:46:23;;;;;;;8.27;4.07;;;7.80;57.90;;;;;;5033318;28;20246;-87
2022/02/26 10:48:51;;;;;;;11.53;3.70;;;7.90;59.00;;;;;;5024434;28;20591;-87
2022/02/26 10:51:21;;;;;;;9.00;3.33;;;7.70;58.20;;;;;;5016540;28;20264;-87
2022/02/26 10:53:47;;;;;;;4.27;2.50;;;7.60;60.40;;;;;;4991729;28;20196;-87
2022/02/26 10:56:15;;;;;;;6.23;3.03;;;7.50;55.20;;;;;;5002672;28;20213;-87
2022/02/26 10:58:42;;;;;;;7.73;3.40;;;7.30;56.90;;;;;;4998447;28;20216;-87
2022/02/26 11:01:11;;;;;;;7.63;3.40;;;7.60;58.20;;;;;;5018134;28;20252;-87
2022/02/26 11:03:37;;;;;;;5.70;3.00;;;8.00;56.50;;;;;;5012959;28;20274;-87
2022/02/26 11:06:06;;;;;;;8.47;3.10;;;8.20;51.80;;;;;;5013844;28;20221;-88
2022/02/26 11:08:33;;;;;;;6.87;2.60;;;8.10;51.60;;;;;;5027874;28;20170;-88
2022/02/26 11:11:01;;;;;;;5.67;3.00;;;8.00;52.10;;;;;;5011107;28;20189;-88
2022/02/26 11:13:27;;;;;;;5.83;3.20;;;8.00;52.40;;;;;;5027073;28;20189;-88
2022/02/26 11:15:59;;;;;;;6.67;3.50;;;8.00;52.90;;;;;;5013669;28;20236;-87
2022/02/26 11:18:30;;;;;;;7.67;3.67;;;8.00;54.60;;;;;;5029949;28;20170;-91
2022/02/26 11:20:57;;;;;;;6.77;3.83;;;8.10;53.90;;;;;;5013820;28;20233;-88
2022/02/26 11:23:24;;;;;;;5.50;3.10;;;8.70;52.90;;;;;;5021209;28;20196;-90
2022/02/26 11:25:51;;;;;;;7.20;3.63;;;9.30;50.80;;;;;;5029334;28;20235;-89
2022/02/26 11:28:18;;;;;;;6.97;3.60;;;9.70;49.80;;;;;;5028425;28;20185;-89
2022/02/26 11:30:54;;;;;;;5.70;3.67;;;9.80;49.60;;;;;;5015123;28;20248;-88
2022/02/26 11:33:20;;;;;;;8.97;3.90;;;9.50;49.90;;;;;;5020408;28;20224;-88
2022/02/26 11:35:51;;;;;;;6.80;3.93;;;9.80;48.50;;;;;;5010423;28;20217;-88
2022/02/26 11:38:18;;;;;;;9.20;4.17;;;10.20;50.90;;;;;;5029294;28;20197;-88
2022/02/26 11:41:07;;;;;;;6.13;3.77;;;9.90;49.60;;;;;;5027515;28;20182;-88
2022/02/26 11:43:35;;;;;;;9.53;4.27;;;9.70;50.90;;;;;;5009518;28;20190;-90
2022/02/26 11:46:29;;;;;;;10.13;4.33;;;9.30;52.90;;;;;;5002403;28;20222;-89
2022/02/26 11:48:59;;;;;;;13.80;4.60;;;9.40;52.30;;;;;;5016706;28;20216;-88
2022/02/26 11:51:36;;;;;;;10.23;4.43;;;9.50;52.10;;;;;;5022182;28;20225;-89
2022/02/26 11:54:06;;;;;;;8.90;4.77;;;9.10;53.80;;;;;;5030005;28;20183;-90
2022/02/26 11:56:44;;;;;;;6.93;4.20;;;9.50;52.80;;;;;;5027448;28;20239;-89
2022/02/26 11:59:09;;;;;;;10.70;4.60;;;10.00;50.00;;;;;;5027824;28;20196;-88
2022/02/26 12:01:35;;;;;;;7.50;3.37;;;10.50;50.50;;;;;;5014298;28;20224;-88
2022/02/26 12:04:02;;;;;;;8.30;3.57;;;10.80;45.70;;;;;;5026631;28;20699;-89
2022/02/26 12:06:30;;;;;;;5.40;3.60;;;11.00;44.70;;;;;;5021530;28;20217;-88
2022/02/26 12:09:08;;;;;;;7.63;3.47;;;11.50;43.20;;;;;;5018944;28;20719;-89
2022/02/26 12:11:40;;;;;;;5.93;2.90;;;11.50;40.70;;;;;;5021204;28;20186;-89
2022/02/26 12:14:08;;;;;;;8.17;4.87;;;11.50;39.70;;;;;;5009078;28;20209;-89
2022/02/26 12:16:38;;;;;;;10.03;4.50;;;11.50;43.70;;;;;;5019851;28;20192;-89
2022/02/26 12:19:21;;;;;;;9.97;4.40;;;11.50;43.20;;;;;;5017581;28;20302;-90
2022/02/26 12:21:59;;;;;;;5.40;3.60;;;11.80;43.40;;;;;;5004938;28;20545;-89
2022/02/26 12:24:28;;;;;;;11.50;3.23;;;11.50;42.40;;;;;;5029764;28;20217;-88
2022/02/26 12:26:57;;;;;;;8.27;3.20;;;11.80;40.10;;;;;;4997612;28;20211;-89
2022/02/26 12:29:26;;;;;;;7.90;3.93;;;12.10;40.40;;;;;;5014008;28;20248;-88
2022/02/26 12:31:59;;;;;;;7.57;3.67;;;12.10;40.10;;;;;;4992655;28;20196;-89
2022/02/26 12:34:26;;;;;;;6.93;3.30;;;12.00;39.40;;;;;;5012946;28;20675;-90
2022/02/26 12:37:05;;;;;;;5.77;3.77;;;12.10;40.90;;;;;;4997271;28;20249;-89
2022/02/26 12:39:31;;;;;;;6.37;3.77;;;12.30;40.10;;;;;;5001295;28;20363;-89
2022/02/26 12:41:57;;;;;;;6.27;3.17;;;12.40;39.80;;;;;;4994918;28;20304;-88
2022/02/26 12:44:26;;;;;;;4.73;3.30;;;12.80;38.60;;;;;;4997485;28;20762;-89
2022/02/26 12:46:52;;;;;;;6.30;3.63;;;12.60;38.20;;;;;;4977276;28;20221;-89
2022/02/26 12:49:18;;;;;;;9.97;3.50;;;12.60;39.20;;;;;;5016391;28;20300;-89
2022/02/26 12:51:44;;;;;;;7.33;3.50;;;12.60;38.60;;;;;;5012648;28;20659;-89